sensor_id;sensor_type;location;lat;lon;timestamp;temperature;humidity
56046;DHT22;41913;51.030;3.706;2023-12-20T00:00:36;19.60;80.10
56046;DHT22;41913;51.030;3.706;2023-12-20T00:03:03;19.60;80.00
56046;DHT22;41913;51.030;3.706;2023-12-20T00:05:31;19.60;80.10
56046;DHT22;41913;51.030;3.706;2023-12-20T00:08:00;19.50;80.00
56046;DHT22;41913;51.030;3.706;2023-12-20T00:10:26;19.50;80.10
56046;DHT22;41913;51.030;3.706;2023-12-20T00:12:53;19.50;80.10
56046;DHT22;41913;51.030;3.706;2023-12-20T00:15:19;19.50;80.10
56046;DHT22;41913;51.030;3.706;2023-12-20T00:17:44;19.50;80.20
56046;DHT22;41913;51.030;3.706;2023-12-20T00:20:10;19.50;80.00
56046;DHT22;41913;51.030;3.706;2023-12-20T00:22:36;19.50;80.00
56046;DHT22;41913;51.030;3.706;2023-12-20T00:25:02;19.50;80.10
56046;DHT22;41913;51.030;3.706;2023-12-20T00:27:27;19.50;80.10
56046;DHT22;41913;51.030;3.706;2023-12-20T00:29:53;19.50;80.10
56046;DHT22;41913;51.030;3.706;2023-12-20T00:32:19;19.50;80.20
56046;DHT22;41913;51.030;3.706;2023-12-20T00:34:45;19.50;80.20
56046;DHT22;41913;51.030;3.706;2023-12-20T00:37:10;19.50;80.10
56046;DHT22;41913;51.030;3.706;2023-12-20T00:39:36;19.40;80.10
56046;DHT22;41913;51.030;3.706;2023-12-20T00:42:02;19.50;80.10
56046;DHT22;41913;51.030;3.706;2023-12-20T00:44:28;19.50;80.10
56046;DHT22;41913;51.030;3.706;2023-12-20T00:46:53;19.40;80.00
56046;DHT22;41913;51.030;3.706;2023-12-20T00:49:19;19.40;80.10
56046;DHT22;41913;51.030;3.706;2023-12-20T00:51:45;19.40;80.10
56046;DHT22;41913;51.030;3.706;2023-12-20T00:54:12;19.40;80.10
56046;DHT22;41913;51.030;3.706;2023-12-20T00:56:39;19.40;80.10
56046;DHT22;41913;51.030;3.706;2023-12-20T00:59:04;19.40;80.10
56046;DHT22;41913;51.030;3.706;2023-12-20T01:01:30;19.40;80.20
56046;DHT22;41913;51.030;3.706;2023-12-20T01:03:58;19.40;80.10
56046;DHT22;41913;51.030;3.706;2023-12-20T01:06:24;19.40;80.10
56046;DHT22;41913;51.030;3.706;2023-12-20T01:08:50;19.40;80.10
56046;DHT22;41913;51.030;3.706;2023-12-20T01:11:15;19.30;80.00
56046;DHT22;41913;51.030;3.706;2023-12-20T01:13:41;19.30;80.00
56046;DHT22;41913;51.030;3.706;2023-12-20T01:16:10;19.40;80.10
56046;DHT22;41913;51.030;3.706;2023-12-20T01:18:36;19.40;80.10
56046;DHT22;41913;51.030;3.706;2023-12-20T01:21:02;19.40;80.00
56046;DHT22;41913;51.030;3.706;2023-12-20T01:23:29;19.30;80.00
56046;DHT22;41913;51.030;3.706;2023-12-20T01:25:55;19.30;80.00
56046;DHT22;41913;51.030;3.706;2023-12-20T01:28:20;19.30;79.90
56046;DHT22;41913;51.030;3.706;2023-12-20T01:30:46;19.30;80.00
56046;DHT22;41913;51.030;3.706;2023-12-20T01:33:13;19.30;80.00
56046;DHT22;41913;51.030;3.706;2023-12-20T01:35:39;19.30;79.90
56046;DHT22;41913;51.030;3.706;2023-12-20T01:38:05;19.30;79.90
56046;DHT22;41913;51.030;3.706;2023-12-20T01:40:30;19.20;79.90
56046;DHT22;41913;51.030;3.706;2023-12-20T01:43:07;19.30;79.90
56046;DHT22;41913;51.030;3.706;2023-12-20T01:45:34;19.20;79.90
56046;DHT22;41913;51.030;3.706;2023-12-20T01:48:00;19.30;79.90
56046;DHT22;41913;51.030;3.706;2023-12-20T01:50:28;19.20;79.90
56046;DHT22;41913;51.030;3.706;2023-12-20T01:52:55;19.20;79.90
56046;DHT22;41913;51.030;3.706;2023-12-20T01:55:26;19.20;79.90
56046;DHT22;41913;51.030;3.706;2023-12-20T01:57:53;19.20;79.90
56046;DHT22;41913;51.030;3.706;2023-12-20T02:00:21;19.20;79.90
56046;DHT22;41913;51.030;3.706;2023-12-20T02:02:53;19.20;79.90
56046;DHT22;41913;51.030;3.706;2023-12-20T02:05:21;19.20;79.90
56046;DHT22;41913;51.030;3.706;2023-12-20T02:07:47;19.20;79.80
56046;DHT22;41913;51.030;3.706;2023-12-20T02:10:13;19.20;79.90
56046;DHT22;41913;51.030;3.706;2023-12-20T02:12:40;19.20;79.80
56046;DHT22;41913;51.030;3.706;2023-12-20T02:15:06;19.20;79.80
56046;DHT22;41913;51.030;3.706;2023-12-20T02:17:32;19.10;79.80
56046;DHT22;41913;51.030;3.706;2023-12-20T02:19:59;19.10;79.80
56046;DHT22;41913;51.030;3.706;2023-12-20T02:22:25;19.10;79.80
56046;DHT22;41913;51.030;3.706;2023-12-20T02:24:51;19.10;79.80
56046;DHT22;41913;51.030;3.706;2023-12-20T02:27:19;19.10;79.80
56046;DHT22;41913;51.030;3.706;2023-12-20T02:29:47;19.10;79.70
56046;DHT22;41913;51.030;3.706;2023-12-20T02:32:13;19.10;79.80
56046;DHT22;41913;51.030;3.706;2023-12-20T02:34:39;19.10;79.80
56046;DHT22;41913;51.030;3.706;2023-12-20T02:37:05;19.10;79.80
56046;DHT22;41913;51.030;3.706;2023-12-20T02:39:33;19.10;79.80
56046;DHT22;41913;51.030;3.706;2023-12-20T02:41:59;19.10;79.80
56046;DHT22;41913;51.030;3.706;2023-12-20T02:44:26;19.10;79.70
56046;DHT22;41913;51.030;3.706;2023-12-20T02:46:52;19.10;79.70
56046;DHT22;41913;51.030;3.706;2023-12-20T02:49:18;19.10;79.70
56046;DHT22;41913;51.030;3.706;2023-12-20T02:51:43;19.00;79.60
56046;DHT22;41913;51.030;3.706;2023-12-20T02:54:09;19.00;79.70
56046;DHT22;41913;51.030;3.706;2023-12-20T02:56:35;19.00;79.60
56046;DHT22;41913;51.030;3.706;2023-12-20T02:59:01;19.00;79.70
56046;DHT22;41913;51.030;3.706;2023-12-20T03:01:28;19.00;79.60
56046;DHT22;41913;51.030;3.706;2023-12-20T03:03:54;19.00;79.60
56046;DHT22;41913;51.030;3.706;2023-12-20T03:06:20;19.00;79.60
56046;DHT22;41913;51.030;3.706;2023-12-20T03:08:46;19.00;79.70
56046;DHT22;41913;51.030;3.706;2023-12-20T03:11:12;19.00;79.60
56046;DHT22;41913;51.030;3.706;2023-12-20T03:13:37;18.90;79.60
56046;DHT22;41913;51.030;3.706;2023-12-20T03:16:13;18.90;79.60
56046;DHT22;41913;51.030;3.706;2023-12-20T03:18:41;18.90;79.50
56046;DHT22;41913;51.030;3.706;2023-12-20T03:21:07;18.90;79.60
56046;DHT22;41913;51.030;3.706;2023-12-20T03:23:33;18.90;79.60
56046;DHT22;41913;51.030;3.706;2023-12-20T03:25:59;18.90;79.60
56046;DHT22;41913;51.030;3.706;2023-12-20T03:28:27;18.90;79.60
56046;DHT22;41913;51.030;3.706;2023-12-20T03:30:53;18.90;79.60
56046;DHT22;41913;51.030;3.706;2023-12-20T03:33:20;18.90;79.60
56046;DHT22;41913;51.030;3.706;2023-12-20T03:35:46;18.90;79.60
56046;DHT22;41913;51.030;3.706;2023-12-20T03:38:12;18.90;79.60
56046;DHT22;41913;51.030;3.706;2023-12-20T03:40:38;18.90;79.60
56046;DHT22;41913;51.030;3.706;2023-12-20T03:43:03;18.90;79.60
56046;DHT22;41913;51.030;3.706;2023-12-20T03:45:29;18.90;79.60
56046;DHT22;41913;51.030;3.706;2023-12-20T03:47:55;18.80;79.60
56046;DHT22;41913;51.030;3.706;2023-12-20T03:50:23;18.90;79.60
56046;DHT22;41913;51.030;3.706;2023-12-20T03:52:48;18.90;79.70
56046;DHT22;41913;51.030;3.706;2023-12-20T03:55:15;18.80;79.60
56046;DHT22;41913;51.030;3.706;2023-12-20T03:57:41;18.90;79.70
56046;DHT22;41913;51.030;3.706;2023-12-20T04:00:10;18.80;79.60
56046;DHT22;41913;51.030;3.706;2023-12-20T04:02:40;18.80;79.60
56046;DHT22;41913;51.030;3.706;2023-12-20T04:05:07;18.80;79.60
56046;DHT22;41913;51.030;3.706;2023-12-20T04:07:33;18.80;79.60
56046;DHT22;41913;51.030;3.706;2023-12-20T04:09:58;18.80;79.60
56046;DHT22;41913;51.030;3.706;2023-12-20T04:12:24;18.80;79.60
56046;DHT22;41913;51.030;3.706;2023-12-20T04:14:50;18.80;79.60
56046;DHT22;41913;51.030;3.706;2023-12-20T04:17:17;18.80;79.60
56046;DHT22;41913;51.030;3.706;2023-12-20T04:19:43;18.80;79.60
56046;DHT22;41913;51.030;3.706;2023-12-20T04:22:09;18.80;79.60
56046;DHT22;41913;51.030;3.706;2023-12-20T04:24:35;18.80;79.50
56046;DHT22;41913;51.030;3.706;2023-12-20T04:27:01;18.70;79.50
56046;DHT22;41913;51.030;3.706;2023-12-20T04:29:27;18.70;79.50
56046;DHT22;41913;51.030;3.706;2023-12-20T04:31:53;18.70;79.50
56046;DHT22;41913;51.030;3.706;2023-12-20T04:34:19;18.70;79.50
56046;DHT22;41913;51.030;3.706;2023-12-20T04:36:45;18.70;79.50
56046;DHT22;41913;51.030;3.706;2023-12-20T04:39:12;18.70;79.50
56046;DHT22;41913;51.030;3.706;2023-12-20T04:41:38;18.70;79.50
56046;DHT22;41913;51.030;3.706;2023-12-20T04:44:06;18.70;79.50
56046;DHT22;41913;51.030;3.706;2023-12-20T04:46:32;18.70;79.50
56046;DHT22;41913;51.030;3.706;2023-12-20T04:48:58;18.70;79.40
56046;DHT22;41913;51.030;3.706;2023-12-20T04:51:23;18.70;79.40
56046;DHT22;41913;51.030;3.706;2023-12-20T04:53:49;18.70;79.50
56046;DHT22;41913;51.030;3.706;2023-12-20T04:56:16;18.70;79.50
56046;DHT22;41913;51.030;3.706;2023-12-20T04:58:45;18.70;79.40
56046;DHT22;41913;51.030;3.706;2023-12-20T05:01:11;18.60;79.40
56046;DHT22;41913;51.030;3.706;2023-12-20T05:03:37;18.70;79.50
56046;DHT22;41913;51.030;3.706;2023-12-20T05:06:03;18.70;79.40
56046;DHT22;41913;51.030;3.706;2023-12-20T05:08:29;18.70;79.40
56046;DHT22;41913;51.030;3.706;2023-12-20T05:10:55;18.60;79.40
56046;DHT22;41913;51.030;3.706;2023-12-20T05:13:21;18.60;79.30
56046;DHT22;41913;51.030;3.706;2023-12-20T05:15:47;18.60;79.30
56046;DHT22;41913;51.030;3.706;2023-12-20T05:18:13;18.60;79.30
56046;DHT22;41913;51.030;3.706;2023-12-20T05:20:39;18.60;79.30
56046;DHT22;41913;51.030;3.706;2023-12-20T05:23:05;18.60;79.30
56046;DHT22;41913;51.030;3.706;2023-12-20T05:25:31;18.60;79.30
56046;DHT22;41913;51.030;3.706;2023-12-20T05:27:57;18.60;79.30
56046;DHT22;41913;51.030;3.706;2023-12-20T05:30:23;18.60;79.30
56046;DHT22;41913;51.030;3.706;2023-12-20T05:32:48;18.60;79.30
56046;DHT22;41913;51.030;3.706;2023-12-20T05:35:15;18.60;79.30
56046;DHT22;41913;51.030;3.706;2023-12-20T05:37:41;18.60;79.40
56046;DHT22;41913;51.030;3.706;2023-12-20T05:40:08;18.60;79.10
56046;DHT22;41913;51.030;3.706;2023-12-20T05:42:36;18.60;78.90
56046;DHT22;41913;51.030;3.706;2023-12-20T05:45:05;18.70;79.00
56046;DHT22;41913;51.030;3.706;2023-12-20T05:47:31;18.80;79.00
56046;DHT22;41913;51.030;3.706;2023-12-20T05:49:57;18.90;79.30
56046;DHT22;41913;51.030;3.706;2023-12-20T05:52:24;19.00;80.00
56046;DHT22;41913;51.030;3.706;2023-12-20T05:54:49;19.10;81.80
56046;DHT22;41913;51.030;3.706;2023-12-20T05:57:15;19.20;84.40
56046;DHT22;41913;51.030;3.706;2023-12-20T05:59:41;19.40;86.90
56046;DHT22;41913;51.030;3.706;2023-12-20T06:02:07;19.60;88.20
56046;DHT22;41913;51.030;3.706;2023-12-20T06:04:32;19.60;84.70
56046;DHT22;41913;51.030;3.706;2023-12-20T06:06:58;19.60;82.00
56046;DHT22;41913;51.030;3.706;2023-12-20T06:09:26;19.70;81.00
56046;DHT22;41913;51.030;3.706;2023-12-20T06:11:52;19.70;80.50
56046;DHT22;41913;51.030;3.706;2023-12-20T06:14:18;19.70;80.20
56046;DHT22;41913;51.030;3.706;2023-12-20T06:16:45;19.80;80.20
56046;DHT22;41913;51.030;3.706;2023-12-20T06:19:12;19.80;80.10
56046;DHT22;41913;51.030;3.706;2023-12-20T06:21:38;19.90;80.00
56046;DHT22;41913;51.030;3.706;2023-12-20T06:24:04;19.90;79.80
56046;DHT22;41913;51.030;3.706;2023-12-20T06:26:30;19.90;79.70
56046;DHT22;41913;51.030;3.706;2023-12-20T06:28:55;20.00;79.50
56046;DHT22;41913;51.030;3.706;2023-12-20T06:31:21;20.00;79.50
56046;DHT22;41913;51.030;3.706;2023-12-20T06:33:47;20.00;79.60
56046;DHT22;41913;51.030;3.706;2023-12-20T06:36:15;20.00;79.60
56046;DHT22;41913;51.030;3.706;2023-12-20T06:38:41;20.00;79.70
56046;DHT22;41913;51.030;3.706;2023-12-20T06:41:07;20.00;79.50
56046;DHT22;41913;51.030;3.706;2023-12-20T06:43:33;20.10;79.80
56046;DHT22;41913;51.030;3.706;2023-12-20T06:46:00;20.10;80.00
56046;DHT22;41913;51.030;3.706;2023-12-20T06:48:29;20.20;80.30
56046;DHT22;41913;51.030;3.706;2023-12-20T06:50:55;20.20;81.10
56046;DHT22;41913;51.030;3.706;2023-12-20T06:53:22;20.20;80.80
56046;DHT22;41913;51.030;3.706;2023-12-20T06:55:47;20.20;80.40
56046;DHT22;41913;51.030;3.706;2023-12-20T06:58:13;20.30;80.30
56046;DHT22;41913;51.030;3.706;2023-12-20T07:00:39;20.20;79.90
56046;DHT22;41913;51.030;3.706;2023-12-20T07:03:05;20.20;80.50
56046;DHT22;41913;51.030;3.706;2023-12-20T07:05:32;20.20;80.50
56046;DHT22;41913;51.030;3.706;2023-12-20T07:07:59;20.20;80.80
56046;DHT22;41913;51.030;3.706;2023-12-20T07:10:25;20.20;81.50
56046;DHT22;41913;51.030;3.706;2023-12-20T07:12:51;20.20;81.70
56046;DHT22;41913;51.030;3.706;2023-12-20T07:15:18;20.20;81.40
56046;DHT22;41913;51.030;3.706;2023-12-20T07:17:43;20.20;81.30
56046;DHT22;41913;51.030;3.706;2023-12-20T07:20:10;20.20;80.80
56046;DHT22;41913;51.030;3.706;2023-12-20T07:22:36;20.20;81.10
56046;DHT22;41913;51.030;3.706;2023-12-20T07:25:02;20.20;80.90
56046;DHT22;41913;51.030;3.706;2023-12-20T07:27:29;20.20;81.00
56046;DHT22;41913;51.030;3.706;2023-12-20T07:29:55;20.20;81.10
56046;DHT22;41913;51.030;3.706;2023-12-20T07:32:20;20.20;80.90
56046;DHT22;41913;51.030;3.706;2023-12-20T07:34:46;20.20;81.10
56046;DHT22;41913;51.030;3.706;2023-12-20T07:37:12;20.20;81.10
56046;DHT22;41913;51.030;3.706;2023-12-20T07:39:42;20.20;80.90
56046;DHT22;41913;51.030;3.706;2023-12-20T07:42:08;20.20;80.80
56046;DHT22;41913;51.030;3.706;2023-12-20T07:44:34;20.20;80.80
56046;DHT22;41913;51.030;3.706;2023-12-20T07:47:01;20.20;80.30
56046;DHT22;41913;51.030;3.706;2023-12-20T07:49:27;20.20;80.30
56046;DHT22;41913;51.030;3.706;2023-12-20T07:51:53;20.20;80.80
56046;DHT22;41913;51.030;3.706;2023-12-20T07:54:19;20.10;80.60
56046;DHT22;41913;51.030;3.706;2023-12-20T07:56:46;20.10;80.80
56046;DHT22;41913;51.030;3.706;2023-12-20T07:59:12;20.20;80.60
56046;DHT22;41913;51.030;3.706;2023-12-20T08:01:38;20.20;80.60
56046;DHT22;41913;51.030;3.706;2023-12-20T08:04:04;20.20;80.50
56046;DHT22;41913;51.030;3.706;2023-12-20T08:06:29;20.20;80.20
56046;DHT22;41913;51.030;3.706;2023-12-20T08:08:55;20.10;80.00
56046;DHT22;41913;51.030;3.706;2023-12-20T08:11:21;20.20;79.90
56046;DHT22;41913;51.030;3.706;2023-12-20T08:13:47;20.10;79.70
56046;DHT22;41913;51.030;3.706;2023-12-20T08:16:12;20.10;79.70
56046;DHT22;41913;51.030;3.706;2023-12-20T08:18:39;20.10;80.00
56046;DHT22;41913;51.030;3.706;2023-12-20T08:21:05;20.20;80.70
56046;DHT22;41913;51.030;3.706;2023-12-20T08:23:34;20.20;80.50
56046;DHT22;41913;51.030;3.706;2023-12-20T08:26:07;20.20;80.60
56046;DHT22;41913;51.030;3.706;2023-12-20T08:28:33;20.20;80.70
56046;DHT22;41913;51.030;3.706;2023-12-20T08:31:00;20.20;80.30
56046;DHT22;41913;51.030;3.706;2023-12-20T08:33:26;20.20;80.20
56046;DHT22;41913;51.030;3.706;2023-12-20T08:35:53;20.20;80.00
56046;DHT22;41913;51.030;3.706;2023-12-20T08:38:19;20.20;80.00
56046;DHT22;41913;51.030;3.706;2023-12-20T08:40:45;20.20;80.10
56046;DHT22;41913;51.030;3.706;2023-12-20T08:43:11;20.20;80.10
56046;DHT22;41913;51.030;3.706;2023-12-20T08:45:38;20.20;80.40
56046;DHT22;41913;51.030;3.706;2023-12-20T08:48:04;20.20;79.90
56046;DHT22;41913;51.030;3.706;2023-12-20T08:50:30;20.20;80.10
56046;DHT22;41913;51.030;3.706;2023-12-20T08:52:56;20.20;80.10
56046;DHT22;41913;51.030;3.706;2023-12-20T08:55:22;20.20;80.10
56046;DHT22;41913;51.030;3.706;2023-12-20T08:57:48;20.20;79.80
56046;DHT22;41913;51.030;3.706;2023-12-20T09:00:14;20.20;79.60
56046;DHT22;41913;51.030;3.706;2023-12-20T09:02:41;20.20;79.50
56046;DHT22;41913;51.030;3.706;2023-12-20T09:05:07;20.20;79.70
56046;DHT22;41913;51.030;3.706;2023-12-20T09:07:33;20.20;79.40
56046;DHT22;41913;51.030;3.706;2023-12-20T09:09:59;20.20;79.50
56046;DHT22;41913;51.030;3.706;2023-12-20T09:12:25;20.20;79.50
56046;DHT22;41913;51.030;3.706;2023-12-20T09:14:52;20.20;79.10
56046;DHT22;41913;51.030;3.706;2023-12-20T09:17:18;20.20;79.00
56046;DHT22;41913;51.030;3.706;2023-12-20T09:19:45;20.20;78.80
56046;DHT22;41913;51.030;3.706;2023-12-20T09:22:11;20.20;79.00
56046;DHT22;41913;51.030;3.706;2023-12-20T09:24:38;20.20;79.00
56046;DHT22;41913;51.030;3.706;2023-12-20T09:27:05;20.10;79.00
56046;DHT22;41913;51.030;3.706;2023-12-20T09:29:31;20.20;79.10
56046;DHT22;41913;51.030;3.706;2023-12-20T09:31:57;20.10;79.00
56046;DHT22;41913;51.030;3.706;2023-12-20T09:34:23;20.10;78.60
56046;DHT22;41913;51.030;3.706;2023-12-20T09:36:49;20.20;78.30
56046;DHT22;41913;51.030;3.706;2023-12-20T09:39:17;20.20;78.10
56046;DHT22;41913;51.030;3.706;2023-12-20T09:42:02;20.20;78.30
56046;DHT22;41913;51.030;3.706;2023-12-20T09:44:28;20.20;78.30
56046;DHT22;41913;51.030;3.706;2023-12-20T09:46:55;20.20;78.30
56046;DHT22;41913;51.030;3.706;2023-12-20T09:49:22;20.20;78.20
56046;DHT22;41913;51.030;3.706;2023-12-20T09:51:50;20.20;78.20
56046;DHT22;41913;51.030;3.706;2023-12-20T09:54:20;20.20;78.20
56046;DHT22;41913;51.030;3.706;2023-12-20T09:56:46;20.20;78.00
56046;DHT22;41913;51.030;3.706;2023-12-20T09:59:13;20.20;77.60
56046;DHT22;41913;51.030;3.706;2023-12-20T10:01:40;20.30;77.40
56046;DHT22;41913;51.030;3.706;2023-12-20T10:04:09;20.30;77.10
56046;DHT22;41913;51.030;3.706;2023-12-20T10:06:41;20.30;77.10
56046;DHT22;41913;51.030;3.706;2023-12-20T10:09:07;20.30;76.80
56046;DHT22;41913;51.030;3.706;2023-12-20T10:11:37;20.30;76.70
56046;DHT22;41913;51.030;3.706;2023-12-20T10:14:05;20.30;76.60
56046;DHT22;41913;51.030;3.706;2023-12-20T10:16:31;20.30;76.60
56046;DHT22;41913;51.030;3.706;2023-12-20T10:18:58;20.30;76.50
56046;DHT22;41913;51.030;3.706;2023-12-20T10:21:24;20.30;76.60
56046;DHT22;41913;51.030;3.706;2023-12-20T10:23:53;20.30;76.60
56046;DHT22;41913;51.030;3.706;2023-12-20T10:26:23;20.40;76.50
56046;DHT22;41913;51.030;3.706;2023-12-20T10:29:00;20.40;76.20
56046;DHT22;41913;51.030;3.706;2023-12-20T10:31:33;20.40;76.10
56046;DHT22;41913;51.030;3.706;2023-12-20T10:34:01;20.40;76.10
56046;DHT22;41913;51.030;3.706;2023-12-20T10:36:29;20.40;76.00
56046;DHT22;41913;51.030;3.706;2023-12-20T10:38:56;20.30;75.90
56046;DHT22;41913;51.030;3.706;2023-12-20T10:41:31;20.30;76.10
56046;DHT22;41913;51.030;3.706;2023-12-20T10:44:06;20.40;76.00
56046;DHT22;41913;51.030;3.706;2023-12-20T10:46:33;20.40;76.00
56046;DHT22;41913;51.030;3.706;2023-12-20T10:49:02;20.40;76.00
56046;DHT22;41913;51.030;3.706;2023-12-20T10:51:28;20.40;76.00
56046;DHT22;41913;51.030;3.706;2023-12-20T10:53:57;20.40;75.80
56046;DHT22;41913;51.030;3.706;2023-12-20T10:56:23;20.50;75.90
56046;DHT22;41913;51.030;3.706;2023-12-20T10:58:49;20.40;75.90
56046;DHT22;41913;51.030;3.706;2023-12-20T11:01:16;20.40;76.00
56046;DHT22;41913;51.030;3.706;2023-12-20T11:03:51;20.40;75.90
56046;DHT22;41913;51.030;3.706;2023-12-20T11:09:23;20.40;76.00
56046;DHT22;41913;51.030;3.706;2023-12-20T11:14:48;20.50;76.10
56046;DHT22;41913;51.030;3.706;2023-12-20T11:17:14;20.50;75.70
56046;DHT22;41913;51.030;3.706;2023-12-20T11:22:29;20.50;75.40
56046;DHT22;41913;51.030;3.706;2023-12-20T11:25:04;20.40;75.40
56046;DHT22;41913;51.030;3.706;2023-12-20T11:27:31;20.40;75.60
56046;DHT22;41913;51.030;3.706;2023-12-20T11:29:59;20.50;75.70
56046;DHT22;41913;51.030;3.706;2023-12-20T11:35:00;20.50;75.40
56046;DHT22;41913;51.030;3.706;2023-12-20T11:37:36;20.50;75.20
56046;DHT22;41913;51.030;3.706;2023-12-20T11:40:07;20.50;75.10
56046;DHT22;41913;51.030;3.706;2023-12-20T11:42:45;20.50;75.00
56046;DHT22;41913;51.030;3.706;2023-12-20T11:45:19;20.50;75.00
56046;DHT22;41913;51.030;3.706;2023-12-20T11:47:49;20.50;74.90
56046;DHT22;41913;51.030;3.706;2023-12-20T11:50:22;20.50;75.00
56046;DHT22;41913;51.030;3.706;2023-12-20T11:52:49;20.40;75.10
56046;DHT22;41913;51.030;3.706;2023-12-20T11:55:14;20.50;75.10
56046;DHT22;41913;51.030;3.706;2023-12-20T11:57:42;20.50;75.10
56046;DHT22;41913;51.030;3.706;2023-12-20T12:00:08;20.50;75.20
56046;DHT22;41913;51.030;3.706;2023-12-20T12:02:34;20.50;75.20
56046;DHT22;41913;51.030;3.706;2023-12-20T12:05:00;20.50;75.70
56046;DHT22;41913;51.030;3.706;2023-12-20T12:07:26;20.50;75.00
56046;DHT22;41913;51.030;3.706;2023-12-20T12:09:52;20.60;74.80
56046;DHT22;41913;51.030;3.706;2023-12-20T12:12:18;20.50;74.50
56046;DHT22;41913;51.030;3.706;2023-12-20T12:14:45;20.40;74.20
56046;DHT22;41913;51.030;3.706;2023-12-20T12:17:13;20.50;74.30
56046;DHT22;41913;51.030;3.706;2023-12-20T12:19:39;20.50;74.20
56046;DHT22;41913;51.030;3.706;2023-12-20T12:22:06;20.50;74.30
56046;DHT22;41913;51.030;3.706;2023-12-20T12:24:46;20.50;74.30
56046;DHT22;41913;51.030;3.706;2023-12-20T12:27:13;20.50;74.20
56046;DHT22;41913;51.030;3.706;2023-12-20T12:29:40;20.60;74.00
56046;DHT22;41913;51.030;3.706;2023-12-20T12:32:09;20.60;74.10
56046;DHT22;41913;51.030;3.706;2023-12-20T12:34:36;20.50;73.90
56046;DHT22;41913;51.030;3.706;2023-12-20T12:37:05;20.50;74.00
56046;DHT22;41913;51.030;3.706;2023-12-20T12:39:31;20.50;74.30
56046;DHT22;41913;51.030;3.706;2023-12-20T12:41:57;20.50;74.60
56046;DHT22;41913;51.030;3.706;2023-12-20T12:44:23;20.60;74.80
56046;DHT22;41913;51.030;3.706;2023-12-20T12:46:52;20.60;74.90
56046;DHT22;41913;51.030;3.706;2023-12-20T12:49:19;20.60;75.00
56046;DHT22;41913;51.030;3.706;2023-12-20T12:51:45;20.60;74.90
56046;DHT22;41913;51.030;3.706;2023-12-20T12:54:12;20.60;74.90
56046;DHT22;41913;51.030;3.706;2023-12-20T12:56:39;20.60;74.90
56046;DHT22;41913;51.030;3.706;2023-12-20T12:59:05;20.60;74.80
56046;DHT22;41913;51.030;3.706;2023-12-20T13:01:31;20.60;74.70
56046;DHT22;41913;51.030;3.706;2023-12-20T13:03:57;20.50;74.70
56046;DHT22;41913;51.030;3.706;2023-12-20T13:06:23;20.60;74.90
56046;DHT22;41913;51.030;3.706;2023-12-20T13:08:49;20.50;75.00
56046;DHT22;41913;51.030;3.706;2023-12-20T13:11:15;20.60;74.80
56046;DHT22;41913;51.030;3.706;2023-12-20T13:13:41;20.60;74.90
56046;DHT22;41913;51.030;3.706;2023-12-20T13:16:07;20.60;74.80
56046;DHT22;41913;51.030;3.706;2023-12-20T13:18:33;20.60;74.70
56046;DHT22;41913;51.030;3.706;2023-12-20T13:20:59;20.60;74.70
56046;DHT22;41913;51.030;3.706;2023-12-20T13:23:25;20.60;74.40
56046;DHT22;41913;51.030;3.706;2023-12-20T13:25:50;20.60;74.40
56046;DHT22;41913;51.030;3.706;2023-12-20T13:28:16;20.60;74.30
56046;DHT22;41913;51.030;3.706;2023-12-20T13:30:42;20.60;74.20
56046;DHT22;41913;51.030;3.706;2023-12-20T13:33:08;20.60;74.10
56046;DHT22;41913;51.030;3.706;2023-12-20T13:35:35;20.60;74.10
56046;DHT22;41913;51.030;3.706;2023-12-20T13:38:01;20.60;74.20
56046;DHT22;41913;51.030;3.706;2023-12-20T13:40:27;20.60;74.20
56046;DHT22;41913;51.030;3.706;2023-12-20T13:42:54;20.60;74.00
56046;DHT22;41913;51.030;3.706;2023-12-20T13:45:21;20.60;74.10
56046;DHT22;41913;51.030;3.706;2023-12-20T13:47:47;20.60;73.70
56046;DHT22;41913;51.030;3.706;2023-12-20T13:50:14;20.60;73.60
56046;DHT22;41913;51.030;3.706;2023-12-20T13:52:40;20.60;73.40
56046;DHT22;41913;51.030;3.706;2023-12-20T13:55:06;20.60;73.50
56046;DHT22;41913;51.030;3.706;2023-12-20T13:57:33;20.60;73.70
56046;DHT22;41913;51.030;3.706;2023-12-20T13:59:59;20.60;73.90
56046;DHT22;41913;51.030;3.706;2023-12-20T14:02:25;20.60;73.80
56046;DHT22;41913;51.030;3.706;2023-12-20T14:04:52;20.60;74.00
56046;DHT22;41913;51.030;3.706;2023-12-20T14:07:18;20.60;73.90
56046;DHT22;41913;51.030;3.706;2023-12-20T14:09:44;20.60;73.60
56046;DHT22;41913;51.030;3.706;2023-12-20T14:12:14;20.60;73.30
56046;DHT22;41913;51.030;3.706;2023-12-20T14:14:40;20.60;73.50
56046;DHT22;41913;51.030;3.706;2023-12-20T14:17:06;20.60;74.20
56046;DHT22;41913;51.030;3.706;2023-12-20T14:19:32;20.60;74.40
56046;DHT22;41913;51.030;3.706;2023-12-20T14:21:58;20.50;74.60
56046;DHT22;41913;51.030;3.706;2023-12-20T14:24:27;20.50;74.80
56046;DHT22;41913;51.030;3.706;2023-12-20T14:26:53;20.50;74.90
56046;DHT22;41913;51.030;3.706;2023-12-20T14:29:19;20.50;75.10
56046;DHT22;41913;51.030;3.706;2023-12-20T14:31:45;20.40;75.00
56046;DHT22;41913;51.030;3.706;2023-12-20T14:34:11;20.40;75.00
56046;DHT22;41913;51.030;3.706;2023-12-20T14:36:37;20.40;75.00
56046;DHT22;41913;51.030;3.706;2023-12-20T14:39:03;20.50;75.10
56046;DHT22;41913;51.030;3.706;2023-12-20T14:41:30;20.50;75.30
56046;DHT22;41913;51.030;3.706;2023-12-20T14:43:56;20.50;75.50
56046;DHT22;41913;51.030;3.706;2023-12-20T14:46:22;20.50;75.40
56046;DHT22;41913;51.030;3.706;2023-12-20T14:48:48;20.50;75.60
56046;DHT22;41913;51.030;3.706;2023-12-20T14:51:15;20.50;75.70
56046;DHT22;41913;51.030;3.706;2023-12-20T14:53:41;20.40;75.80
56046;DHT22;41913;51.030;3.706;2023-12-20T14:56:08;20.40;76.60
56046;DHT22;41913;51.030;3.706;2023-12-20T14:58:33;20.40;76.00
56046;DHT22;41913;51.030;3.706;2023-12-20T15:01:00;20.40;76.00
56046;DHT22;41913;51.030;3.706;2023-12-20T15:03:26;20.40;75.90
56046;DHT22;41913;51.030;3.706;2023-12-20T15:05:52;20.40;75.90
56046;DHT22;41913;51.030;3.706;2023-12-20T15:08:18;20.40;75.80
56046;DHT22;41913;51.030;3.706;2023-12-20T15:10:43;20.40;75.70
56046;DHT22;41913;51.030;3.706;2023-12-20T15:13:09;20.40;75.80
56046;DHT22;41913;51.030;3.706;2023-12-20T15:15:35;20.40;76.10
56046;DHT22;41913;51.030;3.706;2023-12-20T15:18:01;20.40;76.10
56046;DHT22;41913;51.030;3.706;2023-12-20T15:20:29;20.40;76.50
56046;DHT22;41913;51.030;3.706;2023-12-20T15:22:55;20.40;76.20
56046;DHT22;41913;51.030;3.706;2023-12-20T15:25:24;20.40;76.10
56046;DHT22;41913;51.030;3.706;2023-12-20T15:27:50;20.40;75.90
56046;DHT22;41913;51.030;3.706;2023-12-20T15:30:22;20.40;75.90
56046;DHT22;41913;51.030;3.706;2023-12-20T15:32:50;20.40;75.80
56046;DHT22;41913;51.030;3.706;2023-12-20T15:35:16;20.40;75.80
56046;DHT22;41913;51.030;3.706;2023-12-20T15:37:42;20.40;75.80